Time;durP1;ratioP1;P1;durP2;ratioP2;P2;SDS_P1;SDS_P2;PMS_P1;PMS_P2;Temp;Humidity;BMP_temperature;BMP_pressure;BME280_temperature;BME280_humidity;BME280_pressure;Samples;Min_cycle;Max_cycle;Signal;HPM_P1;HPM_P2
2022/06/30 00:02:26;;;;;;;8.18;3.10;;;13.80;99.90;;;;;;5051044;28;20205;-83
2022/06/30 00:04:57;;;;;;;6.97;2.75;;;13.90;99.90;;;;;;5036028;28;20190;-84
2022/06/30 00:07:27;;;;;;;4.32;2.42;;;13.90;99.90;;;;;;5036209;28;20588;-83
2022/06/30 00:09:58;;;;;;;6.93;2.63;;;13.90;99.90;;;;;;5039074;28;20731;-82
2022/06/30 00:12:31;;;;;;;6.55;2.63;;;14.00;99.90;;;;;;5033179;28;20194;-83
2022/06/30 00:15:01;;;;;;;5.07;2.90;;;14.10;99.90;;;;;;5041408;28;20205;-83
2022/06/30 00:17:32;;;;;;;6.82;2.75;;;14.10;99.90;;;;;;5031530;28;20301;-83
2022/06/30 00:20:03;;;;;;;6.50;3.05;;;14.00;99.90;;;;;;5042302;28;20256;-87
2022/06/30 00:22:33;;;;;;;7.15;3.50;;;14.10;99.90;;;;;;5042938;28;20194;-85
2022/06/30 00:25:04;;;;;;;4.97;2.50;;;14.20;99.90;;;;;;5030734;28;20193;-84
2022/06/30 00:27:37;;;;;;;7.80;2.85;;;14.30;99.90;;;;;;5032717;28;20202;-86
2022/06/30 00:30:08;;;;;;;4.38;2.20;;;14.50;99.90;;;;;;5039699;28;20221;-82
2022/06/30 00:32:39;;;;;;;4.00;2.05;;;14.80;99.90;;;;;;5032726;28;20194;-82
2022/06/30 00:35:09;;;;;;;3.85;1.85;;;15.00;99.90;;;;;;5043761;28;20657;-82
2022/06/30 00:37:40;;;;;;;2.63;1.80;;;15.10;99.90;;;;;;5041823;28;20233;-81
2022/06/30 00:40:12;;;;;;;5.88;2.10;;;15.20;99.90;;;;;;5040672;28;20189;-83
2022/06/30 00:42:44;;;;;;;4.15;2.33;;;15.30;99.90;;;;;;5052419;28;20201;-83
2022/06/30 00:45:15;;;;;;;5.03;2.40;;;15.40;99.90;;;;;;5047444;28;20204;-85
2022/06/30 00:47:46;;;;;;;2.85;1.42;;;15.50;99.90;;;;;;5046653;28;20195;-82
2022/06/30 00:50:16;;;;;;;3.13;1.45;;;15.60;99.90;;;;;;5050790;28;20665;-83
2022/06/30 00:52:48;;;;;;;3.47;1.83;;;15.70;99.90;;;;;;5051826;28;20664;-83
2022/06/30 00:55:19;;;;;;;9.15;5.22;;;15.90;99.90;;;;;;5050163;28;20187;-81
2022/06/30 00:57:53;;;;;;;4.88;2.40;;;15.90;99.90;;;;;;5043661;28;20194;-81
2022/06/30 01:00:24;;;;;;;3.75;2.17;;;15.80;99.90;;;;;;5041973;28;20568;-83
2022/06/30 01:02:55;;;;;;;3.50;1.90;;;15.70;99.90;;;;;;5038018;28;20217;-82
2022/06/30 01:05:29;;;;;;;4.93;1.80;;;15.60;99.90;;;;;;5040290;28;20197;-82
2022/06/30 01:08:00;;;;;;;2.38;1.45;;;15.70;99.90;;;;;;5044402;28;20197;-78
2022/06/30 01:13:19;;;;;;;3.30;1.63;;;15.70;99.90;;;;;;5047600;28;20200;-81
2022/06/30 01:15:50;;;;;;;3.45;1.67;;;15.80;99.90;;;;;;5036528;28;20221;-83
2022/06/30 01:18:21;;;;;;;2.17;1.48;;;15.80;99.90;;;;;;5049628;28;20229;-83
2022/06/30 01:20:51;;;;;;;3.15;1.88;;;16.00;99.90;;;;;;5046956;28;20193;-83
2022/06/30 01:23:24;;;;;;;2.70;1.40;;;16.00;99.90;;;;;;5036039;28;20213;-87
2022/06/30 01:25:55;;;;;;;2.30;1.40;;;16.00;99.90;;;;;;5030772;28;20195;-82
2022/06/30 01:28:25;;;;;;;2.50;1.30;;;16.10;99.90;;;;;;5037311;28;20246;-81
2022/06/30 01:30:56;;;;;;;3.60;1.10;;;16.10;99.90;;;;;;5037415;28;20292;-82
2022/06/30 01:33:27;;;;;;;3.17;1.40;;;16.10;99.90;;;;;;5035305;28;20202;-82
2022/06/30 01:35:58;;;;;;;2.13;0.98;;;16.10;99.90;;;;;;5035887;28;20237;-82
2022/06/30 01:38:30;;;;;;;5.97;1.38;;;16.20;99.90;;;;;;5039690;28;20194;-83
2022/06/30 01:41:01;;;;;;;3.13;1.30;;;16.20;99.90;;;;;;5024509;28;20206;-81
2022/06/30 01:43:32;;;;;;;3.83;1.10;;;16.20;99.90;;;;;;5033591;28;20665;-83
2022/06/30 01:46:02;;;;;;;4.47;1.30;;;16.30;99.90;;;;;;5038350;28;20592;-83
2022/06/30 01:48:33;;;;;;;1.60;1.30;;;16.30;99.90;;;;;;5046061;28;20212;-82
2022/06/30 01:51:04;;;;;;;3.85;1.35;;;16.30;99.90;;;;;;5042758;28;20213;-83
2022/06/30 01:53:36;;;;;;;1.58;1.30;;;16.30;99.90;;;;;;5036679;28;20194;-82
2022/06/30 01:56:07;;;;;;;2.33;1.13;;;16.30;99.90;;;;;;5035102;28;20198;-82
2022/06/30 01:58:38;;;;;;;3.33;1.30;;;16.30;99.90;;;;;;5033462;28;20210;-84
2022/06/30 02:01:09;;;;;;;2.50;1.00;;;16.40;99.90;;;;;;5040281;28;20198;-81
2022/06/30 02:03:40;;;;;;;6.30;0.95;;;16.70;99.90;;;;;;5046887;28;20198;-83
2022/06/30 02:06:10;;;;;;;2.28;1.10;;;16.80;99.90;;;;;;5032229;28;20194;-84
2022/06/30 02:08:43;;;;;;;2.97;1.10;;;16.80;99.90;;;;;;5028751;28;20205;-84
2022/06/30 02:11:14;;;;;;;5.60;1.00;;;16.70;99.90;;;;;;5035028;28;20230;-83
2022/06/30 02:13:44;;;;;;;4.55;1.50;;;16.60;99.90;;;;;;5032951;28;20201;-82
2022/06/30 02:16:15;;;;;;;4.43;1.40;;;16.60;99.90;;;;;;5041900;28;20719;-81
2022/06/30 02:18:46;;;;;;;1.75;1.10;;;16.50;99.90;;;;;;5032900;28;20708;-83
2022/06/30 02:21:16;;;;;;;1.42;1.10;;;16.50;99.90;;;;;;5033860;28;20190;-82
2022/06/30 02:23:51;;;;;;;3.75;0.90;;;16.40;99.90;;;;;;5041205;28;20198;-82
2022/06/30 02:26:22;;;;;;;3.00;1.00;;;16.50;99.90;;;;;;5040644;28;20202;-82
2022/06/30 02:28:52;;;;;;;1.65;0.80;;;16.50;99.90;;;;;;5037569;28;20213;-83
2022/06/30 02:31:23;;;;;;;2.13;0.90;;;16.60;99.90;;;;;;5050511;28;20209;-82
2022/06/30 02:33:54;;;;;;;1.95;1.10;;;16.70;99.90;;;;;;5046297;28;20197;-82
2022/06/30 02:36:24;;;;;;;3.08;1.13;;;16.80;99.90;;;;;;5047463;28;20692;-83
2022/06/30 02:38:57;;;;;;;0.88;0.88;;;16.80;99.90;;;;;;5036481;28;20213;-82
2022/06/30 02:41:27;;;;;;;2.80;0.95;;;16.70;99.90;;;;;;5042935;28;20191;-82
2022/06/30 02:43:58;;;;;;;1.30;1.00;;;16.70;99.90;;;;;;5042808;28;20700;-83
2022/06/30 02:46:29;;;;;;;1.10;1.00;;;16.70;99.90;;;;;;5042738;28;20218;-84
2022/06/30 02:48:59;;;;;;;1.40;0.93;;;16.70;99.90;;;;;;5041097;28;20273;-82
2022/06/30 02:51:30;;;;;;;1.42;0.90;;;16.80;99.90;;;;;;5040872;28;20209;-84
2022/06/30 02:54:03;;;;;;;1.42;0.90;;;16.80;99.90;;;;;;5034846;28;20190;-83
2022/06/30 02:56:33;;;;;;;1.38;0.95;;;16.80;99.90;;;;;;5039450;28;20189;-83
2022/06/30 02:59:04;;;;;;;1.13;0.90;;;16.90;99.90;;;;;;5040089;28;20201;-84
2022/06/30 03:01:35;;;;;;;3.50;1.20;;;16.80;99.90;;;;;;5036693;28;20199;-83
2022/06/30 03:04:06;;;;;;;2.47;0.98;;;16.80;99.90;;;;;;5045238;28;20200;-83
2022/06/30 03:06:38;;;;;;;1.92;0.90;;;16.80;99.90;;;;;;5036175;28;20270;-84
2022/06/30 03:09:11;;;;;;;2.15;0.90;;;16.80;99.90;;;;;;5043569;28;20193;-82
2022/06/30 03:11:41;;;;;;;2.58;0.90;;;16.80;99.90;;;;;;5031565;28;20218;-84
2022/06/30 03:14:12;;;;;;;3.60;0.80;;;16.90;99.90;;;;;;5040669;28;20653;-83
2022/06/30 03:16:43;;;;;;;1.73;0.90;;;16.80;99.90;;;;;;5041258;28;20202;-83
2022/06/30 03:19:13;;;;;;;1.48;0.90;;;16.80;99.90;;;;;;5040285;28;20228;-84
2022/06/30 03:21:44;;;;;;;2.95;0.90;;;16.80;99.90;;;;;;5041860;28;20198;-84
2022/06/30 03:24:16;;;;;;;1.23;0.82;;;16.70;99.90;;;;;;5032049;28;20198;-83
2022/06/30 03:26:47;;;;;;;3.15;1.20;;;16.70;99.90;;;;;;5046369;28;20694;-84
2022/06/30 03:29:18;;;;;;;1.42;1.00;;;16.70;99.90;;;;;;5044055;28;20201;-84
2022/06/30 03:31:48;;;;;;;3.80;1.00;;;16.70;99.90;;;;;;5035116;28;20587;-83
2022/06/30 03:34:19;;;;;;;1.63;0.98;;;16.60;99.90;;;;;;5047741;28;20193;-84
2022/06/30 03:36:50;;;;;;;2.60;1.00;;;16.60;99.90;;;;;;5050138;28;20234;-84
2022/06/30 03:39:22;;;;;;;2.40;0.80;;;16.60;99.90;;;;;;5038712;28;20191;-84
2022/06/30 03:41:53;;;;;;;2.63;0.80;;;16.60;99.90;;;;;;5043411;28;20205;-83
2022/06/30 03:44:23;;;;;;;2.30;0.70;;;16.60;99.90;;;;;;5041703;28;20205;-84
2022/06/30 03:46:54;;;;;;;3.50;0.90;;;16.70;99.90;;;;;;5036259;28;20196;-85
2022/06/30 03:49:25;;;;;;;2.03;0.70;;;16.70;99.90;;;;;;5045390;28;20203;-82
2022/06/30 03:51:55;;;;;;;1.42;0.70;;;16.70;99.90;;;;;;5044774;28;20224;-85
2022/06/30 03:54:28;;;;;;;1.98;0.93;;;16.70;99.90;;;;;;5042246;28;20738;-83
2022/06/30 03:56:58;;;;;;;3.53;0.70;;;16.70;99.90;;;;;;5040155;28;20199;-85
2022/06/30 03:59:29;;;;;;;2.35;0.70;;;16.70;99.90;;;;;;5047240;28;20195;-83
2022/06/30 04:02:00;;;;;;;4.38;1.00;;;16.70;99.90;;;;;;5040482;28;20197;-85
2022/06/30 04:04:30;;;;;;;1.25;0.80;;;16.70;99.90;;;;;;5045946;28;20186;-87
2022/06/30 04:07:01;;;;;;;2.33;0.60;;;16.70;99.90;;;;;;5050585;28;20559;-83
2022/06/30 04:09:36;;;;;;;1.35;0.63;;;16.70;99.90;;;;;;5049796;28;20186;-84
2022/06/30 04:12:07;;;;;;;4.35;1.05;;;16.70;99.90;;;;;;5049894;28;20216;-85
2022/06/30 04:14:38;;;;;;;3.17;0.70;;;16.70;99.90;;;;;;5047540;28;20646;-86
2022/06/30 04:17:09;;;;;;;1.77;0.60;;;16.70;99.90;;;;;;5047543;28;20187;-87
2022/06/30 04:19:39;;;;;;;2.40;0.65;;;16.70;99.90;;;;;;5047931;28;20557;-85
2022/06/30 04:22:10;;;;;;;3.28;0.70;;;16.70;99.90;;;;;;5047102;28;20190;-89
2022/06/30 04:24:43;;;;;;;0.77;0.50;;;16.60;99.90;;;;;;5044233;28;20591;-86
2022/06/30 04:27:14;;;;;;;0.70;0.55;;;16.60;99.90;;;;;;5047659;28;20190;-86
2022/06/30 04:29:44;;;;;;;0.73;0.52;;;16.60;99.90;;;;;;5045403;28;20222;-87
2022/06/30 04:35:01;;;;;;;3.47;1.00;;;16.50;99.90;;;;;;5044799;28;20197;-86
2022/06/30 04:37:32;;;;;;;1.30;0.60;;;16.50;99.90;;;;;;5048567;28;20229;-87
2022/06/30 04:42:52;;;;;;;2.53;0.65;;;16.50;99.90;;;;;;5042282;28;20649;-87
2022/06/30 04:45:22;;;;;;;2.70;0.77;;;16.40;99.90;;;;;;5041768;28;20205;-86
2022/06/30 04:47:54;;;;;;;8.60;4.82;;;16.40;99.90;;;;;;5040672;28;20212;-86
2022/06/30 04:50:25;;;;;;;7.63;4.38;;;16.40;99.90;;;;;;5038747;28;20213;-85
2022/06/30 04:52:56;;;;;;;12.70;6.07;;;16.30;99.90;;;;;;5039581;28;20225;-84
2022/06/30 04:55:28;;;;;;;6.57;4.10;;;16.30;99.90;;;;;;5036501;28;20216;-78
2022/06/30 04:57:59;;;;;;;4.95;1.75;;;16.30;99.90;;;;;;5039175;28;20206;-78
2022/06/30 05:00:29;;;;;;;6.32;3.53;;;16.30;99.90;;;;;;5035023;28;20205;-78
2022/06/30 05:03:00;;;;;;;3.10;1.65;;;16.30;99.90;;;;;;5035063;28;20191;-78
2022/06/30 05:05:31;;;;;;;2.35;1.20;;;16.20;99.90;;;;;;5040378;28;20194;-78
2022/06/30 05:08:02;;;;;;;0.82;0.70;;;16.20;99.90;;;;;;5038241;28;20194;-77
2022/06/30 05:10:34;;;;;;;2.05;1.08;;;16.20;99.90;;;;;;5041839;28;20213;-78
2022/06/30 05:13:07;;;;;;;2.65;1.00;;;16.20;99.90;;;;;;5038849;28;20221;-77
2022/06/30 05:15:37;;;;;;;2.00;0.95;;;16.20;99.90;;;;;;5036409;28;20198;-78
2022/06/30 05:18:08;;;;;;;3.75;0.90;;;16.20;99.90;;;;;;5045469;28;20194;-78
2022/06/30 05:20:39;;;;;;;2.92;0.95;;;16.20;99.90;;;;;;5047589;28;20638;-78
2022/06/30 05:23:09;;;;;;;1.50;0.80;;;16.20;99.90;;;;;;5044911;28;20209;-77
2022/06/30 05:28:29;;;;;;;1.15;0.80;;;16.10;99.90;;;;;;5041668;28;20201;-83
2022/06/30 05:30:59;;;;;;;2.22;0.60;;;16.10;99.90;;;;;;5044763;28;20200;-77
2022/06/30 05:33:30;;;;;;;1.33;0.60;;;16.10;99.90;;;;;;5043146;28;20593;-78
2022/06/30 05:36:02;;;;;;;2.00;0.70;;;16.00;99.90;;;;;;5045226;28;20700;-77
2022/06/30 05:38:32;;;;;;;1.38;0.70;;;16.00;99.90;;;;;;5033270;28;20217;-76
2022/06/30 05:41:05;;;;;;;0.98;0.68;;;16.10;99.90;;;;;;5035418;28;20210;-77
2022/06/30 05:43:35;;;;;;;1.17;0.60;;;16.00;99.90;;;;;;5039672;28;20200;-77
2022/06/30 05:46:06;;;;;;;1.75;0.60;;;15.90;99.90;;;;;;5031963;28;20198;-78
2022/06/30 05:48:37;;;;;;;3.50;0.63;;;15.90;99.90;;;;;;5044367;28;20190;-77
2022/06/30 05:51:07;;;;;;;0.60;0.60;;;15.90;99.90;;;;;;5041856;28;20193;-76
2022/06/30 05:53:38;;;;;;;1.85;0.52;;;15.90;99.90;;;;;;5039049;28;20197;-77
2022/06/30 05:56:12;;;;;;;0.50;0.50;;;15.90;99.90;;;;;;5041799;28;20564;-77
2022/06/30 05:58:42;;;;;;;1.10;0.50;;;15.90;99.90;;;;;;5035786;28;20277;-77
2022/06/30 06:01:13;;;;;;;2.25;0.60;;;15.80;99.90;;;;;;5036913;28;20658;-77
2022/06/30 06:03:44;;;;;;;1.50;0.68;;;15.80;99.90;;;;;;5043502;28;20202;-77
2022/06/30 06:06:15;;;;;;;2.97;0.70;;;15.80;99.90;;;;;;5029198;28;20198;-76
2022/06/30 06:08:45;;;;;;;2.15;0.77;;;15.70;99.90;;;;;;5040320;28;20205;-79
2022/06/30 06:11:18;;;;;;;1.02;0.47;;;15.70;99.90;;;;;;5042224;28;20201;-78
2022/06/30 06:13:49;;;;;;;1.50;0.60;;;15.70;99.90;;;;;;5033519;28;20202;-77
2022/06/30 06:16:19;;;;;;;0.77;0.55;;;15.60;99.90;;;;;;5046873;28;20189;-78
2022/06/30 06:18:50;;;;;;;1.70;0.57;;;15.60;99.90;;;;;;5037746;28;20214;-78
2022/06/30 06:21:21;;;;;;;2.35;0.50;;;15.60;99.90;;;;;;5048384;28;20186;-78
2022/06/30 06:23:51;;;;;;;1.17;0.75;;;15.50;99.90;;;;;;5049092;28;20561;-78
2022/06/30 06:26:24;;;;;;;36.75;29.77;;;15.50;99.90;;;;;;5046691;28;20201;-79
2022/06/30 06:29:10;;;;;;;11.82;7.53;;;15.40;99.90;;;;;;5034539;28;20641;-77
2022/06/30 06:31:42;;;;;;;21.63;15.85;;;15.30;99.90;;;;;;5038661;28;20297;-78
2022/06/30 06:34:13;;;;;;;3.83;2.35;;;15.20;99.90;;;;;;5037995;28;20186;-79
2022/06/30 06:36:44;;;;;;;1.35;1.02;;;15.20;99.90;;;;;;5046488;28;20229;-78
2022/06/30 06:39:14;;;;;;;3.63;2.72;;;15.10;99.90;;;;;;5045024;28;20566;-81
2022/06/30 06:41:47;;;;;;;0.80;0.68;;;15.10;99.90;;;;;;5040907;28;20229;-80
2022/06/30 06:44:18;;;;;;;1.25;1.00;;;15.00;99.90;;;;;;5043723;28;20186;-79
2022/06/30 06:46:48;;;;;;;1.27;0.85;;;15.00;99.90;;;;;;5042033;28;20190;-77
2022/06/30 06:49:19;;;;;;;4.30;1.35;;;14.90;99.90;;;;;;5039088;28;20205;-78
2022/06/30 06:51:50;;;;;;;2.55;1.98;;;14.80;99.90;;;;;;5037865;28;20583;-78
2022/06/30 06:54:21;;;;;;;3.10;0.80;;;14.80;99.90;;;;;;5041167;28;20626;-76
2022/06/30 06:56:53;;;;;;;2.28;0.82;;;14.70;99.90;;;;;;5048198;28;20197;-77
2022/06/30 06:59:24;;;;;;;1.92;1.55;;;14.70;99.90;;;;;;5033837;28;20198;-81
2022/06/30 07:01:55;;;;;;;2.53;1.55;;;14.70;99.90;;;;;;5041877;28;20194;-80
2022/06/30 07:04:25;;;;;;;1.70;1.17;;;14.60;99.90;;;;;;5040446;28;20537;-81
2022/06/30 07:06:56;;;;;;;0.95;0.80;;;14.60;99.90;;;;;;5036045;28;20243;-81
2022/06/30 07:09:27;;;;;;;1.70;0.98;;;14.60;99.90;;;;;;5037702;28;20198;-76
2022/06/30 07:12:02;;;;;;;1.77;1.10;;;14.60;99.90;;;;;;5039801;28;20214;-79
2022/06/30 07:14:33;;;;;;;1.42;1.00;;;14.60;99.90;;;;;;5040257;28;20239;-81
2022/06/30 07:17:03;;;;;;;1.75;1.00;;;14.60;99.90;;;;;;5043803;28;20198;-79
2022/06/30 07:19:34;;;;;;;2.40;1.63;;;14.60;99.90;;;;;;5046953;28;20215;-80
2022/06/30 07:22:05;;;;;;;2.05;1.10;;;14.60;99.90;;;;;;5035837;28;20658;-79
2022/06/30 07:24:35;;;;;;;3.13;1.00;;;14.50;99.90;;;;;;5040733;28;20198;-81
2022/06/30 07:27:08;;;;;;;2.17;1.40;;;14.50;99.90;;;;;;5049956;28;20190;-81
2022/06/30 07:29:39;;;;;;;4.57;1.30;;;14.40;99.90;;;;;;5044617;28;20190;-80
2022/06/30 07:32:11;;;;;;;1.70;1.10;;;14.40;99.90;;;;;;5041992;28;20690;-78
2022/06/30 07:34:42;;;;;;;2.05;1.05;;;14.30;99.90;;;;;;5046825;28;20245;-79
2022/06/30 07:37:12;;;;;;;1.65;1.08;;;14.30;99.90;;;;;;5048835;28;20233;-79
2022/06/30 07:39:43;;;;;;;1.67;1.00;;;14.30;99.90;;;;;;5045004;28;20221;-81
2022/06/30 07:42:15;;;;;;;1.85;1.00;;;14.30;99.90;;;;;;5047971;28;20640;-82
2022/06/30 07:44:46;;;;;;;1.45;1.10;;;14.30;99.90;;;;;;5044201;28;20190;-80
2022/06/30 07:47:17;;;;;;;2.25;1.10;;;14.30;99.90;;;;;;5045036;28;20189;-78
2022/06/30 07:49:47;;;;;;;3.42;1.38;;;14.20;99.90;;;;;;5043659;28;20189;-79
2022/06/30 07:52:18;;;;;;;4.18;1.90;;;14.20;99.90;;;;;;5050522;28;20202;-78
2022/06/30 07:54:50;;;;;;;3.13;1.73;;;14.20;99.90;;;;;;5042825;28;20202;-79
2022/06/30 07:57:23;;;;;;;5.95;1.80;;;14.20;99.90;;;;;;5050916;28;20308;-78
2022/06/30 07:59:54;;;;;;;4.10;1.70;;;14.30;99.90;;;;;;5042149;28;20190;-77
2022/06/30 08:02:25;;;;;;;2.70;1.50;;;14.30;99.90;;;;;;5050413;28;20205;-80
2022/06/30 08:04:56;;;;;;;3.58;1.80;;;14.20;99.90;;;;;;5035745;28;20240;-79
2022/06/30 08:07:26;;;;;;;4.05;1.60;;;14.20;99.90;;;;;;5041868;28;20190;-77
2022/06/30 08:09:57;;;;;;;3.58;1.60;;;14.20;99.90;;;;;;5042365;28;20202;-80
2022/06/30 08:12:29;;;;;;;3.17;1.70;;;14.20;99.90;;;;;;5046770;28;20234;-77
2022/06/30 08:15:00;;;;;;;3.75;2.13;;;14.10;99.90;;;;;;5038893;28;20662;-78
2022/06/30 08:17:31;;;;;;;5.00;1.85;;;14.10;99.90;;;;;;5039631;28;20200;-78
2022/06/30 08:20:02;;;;;;;3.72;2.08;;;14.00;99.90;;;;;;5035315;28;20595;-77
2022/06/30 08:22:33;;;;;;;3.88;2.28;;;13.90;99.90;;;;;;5043723;28;20212;-78
2022/06/30 08:25:05;;;;;;;4.72;2.08;;;13.90;99.90;;;;;;5037916;28;20194;-80
2022/06/30 08:27:37;;;;;;;4.90;2.50;;;13.90;99.90;;;;;;5049136;28;20205;-77
2022/06/30 08:30:09;;;;;;;2.63;2.00;;;13.80;99.90;;;;;;5035939;28;20190;-78
2022/06/30 08:32:40;;;;;;;4.82;2.05;;;13.80;99.90;;;;;;5046355;28;20217;-78
2022/06/30 08:35:10;;;;;;;3.83;2.30;;;13.80;99.90;;;;;;5034605;28;20649;-77
2022/06/30 08:37:41;;;;;;;4.03;2.22;;;13.80;99.90;;;;;;5036852;28;20277;-79
2022/06/30 08:43:17;;;;;;;4.47;2.53;;;13.70;99.90;;;;;;4973631;28;20671;-79
2022/06/30 08:45:49;;;;;;;4.47;2.80;;;13.70;99.90;;;;;;4957854;28;20200;-78
2022/06/30 08:48:20;;;;;;;5.80;3.25;;;13.70;99.90;;;;;;4995122;28;20638;-78
2022/06/30 08:50:55;;;;;;;14.93;6.05;;;13.70;99.90;;;;;;5033793;28;20198;-79
2022/06/30 08:53:27;;;;;;;9.65;4.18;;;13.60;99.90;;;;;;5040323;28;20224;-77
2022/06/30 08:55:57;;;;;;;13.73;6.72;;;13.60;99.90;;;;;;5042935;28;20243;-78
2022/06/30 08:58:30;;;;;;;14.55;6.75;;;13.60;99.90;;;;;;5041085;28;20205;-78
2022/06/30 09:01:01;;;;;;;10.20;5.05;;;13.60;99.90;;;;;;5044572;28;20554;-78
2022/06/30 09:03:31;;;;;;;11.82;5.63;;;13.60;99.90;;;;;;5044824;28;20209;-77
2022/06/30 09:06:02;;;;;;;7.97;4.78;;;13.70;99.90;;;;;;5036487;28;20197;-77
2022/06/30 09:08:33;;;;;;;9.20;4.10;;;13.70;99.90;;;;;;5044012;28;20288;-77
2022/06/30 09:11:04;;;;;;;11.68;5.20;;;13.70;99.90;;;;;;5036059;28;20202;-77
2022/06/30 09:13:45;;;;;;;16.85;8.27;;;13.70;99.90;;;;;;5036020;28;20260;-78
2022/06/30 09:16:17;;;;;;;21.65;10.00;;;13.70;99.90;;;;;;5043512;28;20670;-77
2022/06/30 09:18:48;;;;;;;19.17;9.15;;;13.80;99.90;;;;;;5037956;28;20292;-77
2022/06/30 09:21:20;;;;;;;14.18;7.82;;;13.70;99.90;;;;;;5030495;28;20198;-78
2022/06/30 09:23:51;;;;;;;116.28;74.97;;;13.70;99.90;;;;;;5037160;28;20201;-78
2022/06/30 09:26:23;;;;;;;72.70;46.90;;;13.80;99.90;;;;;;5043456;28;20194;-77
2022/06/30 09:28:56;;;;;;;14.82;8.23;;;13.80;99.90;;;;;;5042331;28;20194;-77
2022/06/30 09:31:38;;;;;;;12.02;6.82;;;13.80;99.90;;;;;;5029433;28;20229;-76
2022/06/30 09:34:16;;;;;;;11.07;7.30;;;13.80;99.90;;;;;;5030153;28;20214;-78
2022/06/30 09:36:47;;;;;;;10.02;5.68;;;13.80;99.90;;;;;;5031694;28;20265;-77
2022/06/30 09:39:19;;;;;;;8.10;4.10;;;13.80;99.90;;;;;;5035058;28;20331;-78
2022/06/30 09:41:52;;;;;;;5.82;3.33;;;13.80;99.90;;;;;;5044553;28;20229;-78
2022/06/30 09:44:25;;;;;;;7.18;3.80;;;13.80;99.90;;;;;;5033627;28;20207;-79
2022/06/30 09:47:00;;;;;;;8.48;3.60;;;13.80;99.90;;;;;;5036200;28;20202;-77
2022/06/30 09:49:35;;;;;;;5.07;3.10;;;13.80;99.90;;;;;;5037529;28;20205;-77
2022/06/30 09:52:07;;;;;;;5.65;3.55;;;13.70;99.90;;;;;;5035338;28;20259;-77
2022/06/30 09:54:38;;;;;;;7.65;3.72;;;13.70;99.90;;;;;;5033964;28;20218;-78
2022/06/30 09:57:11;;;;;;;6.78;3.55;;;13.60;99.90;;;;;;5035032;28;20197;-78
2022/06/30 09:59:44;;;;;;;5.18;2.80;;;13.60;99.90;;;;;;5030174;28;20203;-77
2022/06/30 10:02:15;;;;;;;4.32;2.85;;;13.50;99.90;;;;;;5036707;28;20201;-77
2022/06/30 10:04:58;;;;;;;4.47;2.90;;;13.50;99.90;;;;;;5033701;28;20562;-77
2022/06/30 10:07:30;;;;;;;4.50;2.42;;;13.50;99.90;;;;;;5027863;28;20255;-77
2022/06/30 10:10:00;;;;;;;6.53;2.65;;;13.40;99.90;;;;;;5046320;28;20186;-77
2022/06/30 10:12:31;;;;;;;3.97;2.47;;;13.30;99.90;;;;;;5039088;28;20196;-78
2022/06/30 10:15:06;;;;;;;6.38;2.63;;;13.30;99.90;;;;;;5033416;28;20208;-78
2022/06/30 10:17:40;;;;;;;5.22;2.63;;;13.20;99.90;;;;;;5038717;28;20202;-78
2022/06/30 10:20:11;;;;;;;5.93;2.40;;;13.20;99.90;;;;;;5033443;28;20201;-78
2022/06/30 10:22:43;;;;;;;4.38;2.88;;;13.20;99.90;;;;;;5038021;28;20203;-77
2022/06/30 10:25:14;;;;;;;3.40;2.40;;;13.20;99.90;;;;;;5034158;28;20194;-77
2022/06/30 10:27:47;;;;;;;4.30;2.47;;;13.20;99.90;;;;;;5032342;28;20650;-77
2022/06/30 10:30:23;;;;;;;3.67;2.20;;;13.20;99.90;;;;;;5038066;28;20202;-78
2022/06/30 10:33:02;;;;;;;3.67;2.30;;;13.20;99.90;;;;;;5036435;28;20226;-78
2022/06/30 10:35:38;;;;;;;4.20;2.33;;;13.10;99.90;;;;;;5033534;28;20560;-78
2022/06/30 10:38:17;;;;;;;4.43;2.60;;;13.10;99.90;;;;;;5035697;28;20321;-78
2022/06/30 10:41:05;;;;;;;6.72;2.75;;;13.10;99.90;;;;;;5039958;28;20197;-78
2022/06/30 10:43:36;;;;;;;5.30;2.70;;;13.10;99.90;;;;;;5025704;28;20194;-77
2022/06/30 10:46:09;;;;;;;5.30;2.85;;;13.10;99.90;;;;;;5034022;28;20194;-78
2022/06/30 10:48:55;;;;;;;4.45;3.00;;;13.00;99.90;;;;;;5031753;28;20197;-78
2022/06/30 10:51:26;;;;;;;6.75;2.70;;;13.00;99.90;;;;;;5040656;28;20230;-78
2022/06/30 10:53:58;;;;;;;4.93;2.60;;;13.00;99.90;;;;;;5035865;28;20221;-77
2022/06/30 10:57:00;;;;;;;6.25;2.53;;;13.00;99.90;;;;;;5034766;28;20202;-78
2022/06/30 10:59:31;;;;;;;7.43;2.60;;;13.00;99.90;;;;;;5039508;28;20201;-78
2022/06/30 11:02:25;;;;;;;4.80;2.80;;;13.10;99.90;;;;;;5041229;28;20200;-78
2022/06/30 11:05:26;;;;;;;6.05;2.60;;;13.10;99.90;;;;;;5034397;28;20281;-77
2022/06/30 11:07:57;;;;;;;3.50;2.40;;;13.20;99.90;;;;;;5041781;28;20252;-77
2022/06/30 11:10:28;;;;;;;4.47;2.42;;;13.20;99.90;;;;;;5031864;28;20206;-77
2022/06/30 11:13:09;;;;;;;2.97;2.60;;;13.30;99.90;;;;;;5035628;28;20217;-76
2022/06/30 11:16:02;;;;;;;6.07;2.75;;;13.30;99.90;;;;;;5043820;28;20247;-77
2022/06/30 11:18:37;;;;;;;3.40;2.45;;;13.30;99.90;;;;;;5024601;28;20198;-77
2022/06/30 11:21:08;;;;;;;6.28;2.40;;;13.30;99.90;;;;;;5043302;28;20193;-77
2022/06/30 11:23:42;;;;;;;5.05;2.90;;;13.30;99.90;;;;;;5035769;28;20676;-77
2022/06/30 11:29:00;;;;;;;4.07;2.58;;;13.30;99.90;;;;;;5024544;28;20248;-77
2022/06/30 11:31:34;;;;;;;5.75;2.80;;;13.30;99.90;;;;;;5042481;28;20206;-77
2022/06/30 11:34:10;;;;;;;5.60;2.80;;;13.20;99.90;;;;;;5029140;28;20221;-77
2022/06/30 11:36:41;;;;;;;4.57;2.40;;;13.20;99.90;;;;;;5041048;28;20621;-77
2022/06/30 11:39:14;;;;;;;5.30;2.38;;;13.20;99.90;;;;;;5040793;28;20240;-78
2022/06/30 11:41:59;;;;;;;4.28;2.75;;;13.10;99.90;;;;;;5032237;28;20301;-77
2022/06/30 11:44:33;;;;;;;5.35;2.67;;;13.10;99.90;;;;;;5031356;28;20566;-77
2022/06/30 11:47:05;;;;;;;5.13;2.60;;;13.10;99.90;;;;;;5047228;28;20225;-77
2022/06/30 11:49:45;;;;;;;5.90;2.60;;;13.10;99.90;;;;;;5043110;28;20214;-77
2022/06/30 11:52:18;;;;;;;5.22;2.85;;;13.00;99.90;;;;;;5035054;28;20202;-77
2022/06/30 11:54:52;;;;;;;5.18;2.80;;;13.00;99.90;;;;;;5031718;28;20222;-78
2022/06/30 11:57:24;;;;;;;5.25;3.08;;;13.00;99.90;;;;;;5036525;28;20201;-77
2022/06/30 11:59:57;;;;;;;3.67;2.83;;;12.90;99.90;;;;;;5042763;28;20202;-78
2022/06/30 12:02:27;;;;;;;4.22;2.53;;;12.90;99.90;;;;;;5048619;28;20772;-77
2022/06/30 12:05:01;;;;;;;6.28;2.80;;;12.90;99.90;;;;;;5040829;28;20209;-77
2022/06/30 12:07:33;;;;;;;6.28;2.88;;;12.90;99.90;;;;;;5047384;28;20190;-77
2022/06/30 12:10:05;;;;;;;4.65;2.80;;;12.80;99.90;;;;;;5048468;28;20227;-77
2022/06/30 12:12:39;;;;;;;6.30;2.90;;;12.80;99.90;;;;;;5039077;28;20206;-77
2022/06/30 12:15:14;;;;;;;4.93;2.88;;;12.80;99.90;;;;;;5042594;28;20224;-77
2022/06/30 12:17:47;;;;;;;7.28;2.95;;;12.70;99.90;;;;;;5052569;28;20185;-77
2022/06/30 12:20:20;;;;;;;4.57;2.78;;;12.70;99.90;;;;;;5041642;28;20264;-77
2022/06/30 12:22:53;;;;;;;4.70;2.88;;;12.70;99.90;;;;;;5048351;28;20267;-77
2022/06/30 12:25:24;;;;;;;4.47;2.85;;;12.70;99.90;;;;;;5041705;28;20285;-77
2022/06/30 12:27:56;;;;;;;6.10;2.88;;;12.60;99.90;;;;;;5039731;28;20277;-77
2022/06/30 12:30:29;;;;;;;7.20;2.97;;;12.60;99.90;;;;;;5042578;28;20202;-77
2022/06/30 12:33:00;;;;;;;4.85;2.72;;;12.60;99.90;;;;;;5048827;28;20575;-77
2022/06/30 12:35:35;;;;;;;5.07;2.83;;;12.60;99.90;;;;;;5048433;28;20225;-77
2022/06/30 12:38:18;;;;;;;3.50;2.70;;;12.60;99.90;;;;;;5038349;28;20217;-77
2022/06/30 12:40:49;;;;;;;4.32;2.67;;;12.60;99.90;;;;;;5044233;28;20635;-77
2022/06/30 12:43:21;;;;;;;3.42;2.50;;;12.50;99.90;;;;;;5040070;28;20237;-77
2022/06/30 12:45:55;;;;;;;4.65;2.70;;;12.50;99.90;;;;;;5030870;28;20696;-77
2022/06/30 12:48:44;;;;;;;5.30;2.65;;;12.50;99.90;;;;;;5039447;28;20190;-77
2022/06/30 12:51:18;;;;;;;5.78;2.72;;;12.50;99.90;;;;;;5041332;28;20191;-77
2022/06/30 12:53:50;;;;;;;3.67;2.35;;;12.50;99.90;;;;;;5041227;28;20222;-77
2022/06/30 12:56:22;;;;;;;4.18;2.20;;;12.50;99.90;;;;;;5035037;28;20198;-78
2022/06/30 12:58:57;;;;;;;5.85;2.88;;;12.50;99.90;;;;;;5042676;28;20198;-77
2022/06/30 13:01:30;;;;;;;4.35;2.65;;;12.40;99.90;;;;;;5046071;28;20200;-78
2022/06/30 13:04:03;;;;;;;4.40;2.60;;;12.40;99.90;;;;;;5037830;28;20190;-77
2022/06/30 13:06:36;;;;;;;5.82;2.60;;;12.40;99.90;;;;;;5039644;28;20202;-77
2022/06/30 13:09:09;;;;;;;3.45;2.47;;;12.40;99.90;;;;;;5037781;28;20191;-77
2022/06/30 13:11:42;;;;;;;5.53;2.58;;;12.50;99.90;;;;;;5035712;28;20202;-77
2022/06/30 13:14:13;;;;;;;4.60;2.53;;;12.50;99.90;;;;;;5042617;28;20252;-77
2022/06/30 13:16:44;;;;;;;4.45;2.42;;;12.40;99.90;;;;;;5038618;28;20209;-77
2022/06/30 13:19:15;;;;;;;8.43;2.90;;;12.40;99.90;;;;;;5039491;28;20198;-77
2022/06/30 13:21:49;;;;;;;5.25;2.50;;;12.40;99.90;;;;;;5043291;28;20206;-77
2022/06/30 13:24:21;;;;;;;6.15;2.53;;;12.40;99.90;;;;;;5036911;28;20244;-76
2022/06/30 13:26:53;;;;;;;4.25;2.40;;;12.40;99.90;;;;;;5046503;28;20230;-77
2022/06/30 13:29:25;;;;;;;4.68;2.30;;;12.30;99.90;;;;;;5045828;28;20286;-77